Time,TemperatureF,DewpointF,PressureIn,WindDirection,WindDirectionDegrees,WindSpeedMPH,WindSpeedGustMPH,Humidity,HourlyPrecipIn,Conditions,Clouds,dailyrainin,SoftwareType,DateUTC
2013-02-01 00:02:00,39.0,28.0,30.35,NNE,18,6.0,12.0,65,0.00,,,0.00,,2013-02-01 06:02:00,
2013-02-01 00:11:00,39.0,28.0,30.35,NNE,18,6.0,12.0,65,0.00,,,0.00,,2013-02-01 06:11:00,
2013-02-01 00:22:00,38.0,27.0,30.35,NNW,343,6.0,12.0,65,0.00,,,0.00,,2013-02-01 06:22:00,
2013-02-01 00:32:00,38.0,26.0,30.35,NE,35,13.0,19.0,61,0.00,,,0.00,,2013-02-01 06:32:00,
2013-02-01 00:42:00,38.0,26.0,30.35,NE,35,13.0,19.0,61,0.00,,,0.00,,2013-02-01 06:42:00,
2013-02-01 00:52:00,37.0,24.0,30.36,NNE,33,11.0,16.0,60,0.00,,,0.00,,2013-02-01 06:52:00,
2013-02-01 01:02:00,36.0,24.0,30.37,NNE,29,6.0,12.0,62,0.00,,,0.00,,2013-02-01 07:02:00,
2013-02-01 01:12:00,36.0,24.0,30.38,NE,41,5.0,11.0,61,0.00,,,0.00,,2013-02-01 07:12:00,
2013-02-01 01:22:00,36.0,24.0,30.38,NE,41,5.0,11.0,61,0.00,,,0.00,,2013-02-01 07:22:00,
2013-02-01 01:32:00,35.0,23.0,30.39,NNE,20,4.0,9.0,61,0.00,,,0.00,,2013-02-01 07:32:00,
2013-02-01 01:42:00,35.0,23.0,30.39,NNE,20,4.0,9.0,61,0.00,,,0.00,,2013-02-01 07:42:00,
2013-02-01 01:51:00,35.0,22.0,30.38,NE,50,6.0,12.0,59,0.00,,,0.00,,2013-02-01 07:51:00,
2013-02-01 02:01:00,35.0,22.0,30.39,NNE,16,7.0,12.0,59,0.00,,,0.00,,2013-02-01 08:01:00,
2013-02-01 02:11:00,35.0,22.0,30.39,NNE,16,7.0,12.0,59,0.00,,,0.00,,2013-02-01 08:11:00,
2013-02-01 02:21:00,34.0,22.0,30.38,NNE,25,5.0,11.0,60,0.00,,,0.00,,2013-02-01 08:21:00,
2013-02-01 02:32:00,34.0,21.0,30.38,NNE,28,9.0,15.0,59,0.00,,,0.00,,2013-02-01 08:32:00,
2013-02-01 02:42:00,34.0,21.0,30.38,NNE,28,9.0,15.0,59,0.00,,,0.00,,2013-02-01 08:42:00,
2013-02-01 02:52:00,33.0,21.0,30.38,NE,43,7.0,13.0,61,0.00,,,0.00,,2013-02-01 08:52:00,
2013-02-01 03:01:00,33.0,21.0,30.37,NNE,31,7.0,15.0,61,0.00,,,0.00,,2013-02-01 09:01:00,
2013-02-01 03:11:00,33.0,21.0,30.37,NNE,31,7.0,15.0,61,0.00,,,0.00,,2013-02-01 09:11:00,
2013-02-01 03:21:00,32.0,20.0,30.38,NNE,18,9.0,16.0,60,0.00,,,0.00,,2013-02-01 09:21:00,
2013-02-01 03:32:00,32.0,21.0,30.39,NNE,18,6.0,11.0,63,0.00,,,0.00,,2013-02-01 09:32:00,
2013-02-01 03:41:00,32.0,21.0,30.39,NNE,18,6.0,11.0,63,0.00,,,0.00,,2013-02-01 09:41:00,
2013-02-01 03:51:00,32.0,22.0,30.38,NE,35,7.0,10.0,65,0.00,,,0.00,,2013-02-01 09:51:00,
2013-02-01 04:01:00,31.0,19.0,30.39,NNE,28,8.0,13.0,61,0.00,,,0.00,,2013-02-01 10:01:00,
2013-02-01 04:11:00,31.0,19.0,30.39,NNE,28,8.0,13.0,61,0.00,,,0.00,,2013-02-01 10:11:00,
2013-02-01 04:21:00,31.0,19.0,30.39,NNE,28,8.0,13.0,61,0.00,,,0.00,,2013-02-01 10:21:00,
2013-02-01 04:32:00,31.0,20.0,30.39,NNE,27,5.0,9.0,63,0.00,,,0.00,,2013-02-01 10:32:00,
2013-02-01 04:42:00,31.0,20.0,30.39,NNE,27,5.0,9.0,63,0.00,,,0.00,,2013-02-01 10:42:00,
2013-02-01 04:53:00,31.0,20.0,30.40,NNW,346,4.0,9.0,63,0.00,,,0.00,,2013-02-01 10:53:00,
2013-02-01 05:02:00,30.0,19.0,30.40,NNE,26,3.0,9.0,62,0.00,,,0.00,,2013-02-01 11:02:00,
2013-02-01 05:11:00,30.0,19.0,30.40,NNE,26,3.0,9.0,62,0.00,,,0.00,,2013-02-01 11:11:00,
2013-02-01 05:22:00,30.0,20.0,30.40,North,355,4.0,6.0,66,0.00,,,0.00,,2013-02-01 11:22:00,
2013-02-01 05:32:00,30.0,21.0,30.40,NNE,20,3.0,5.0,68,0.00,,,0.00,,2013-02-01 11:32:00,
2013-02-01 05:41:00,30.0,21.0,30.40,NNE,20,3.0,5.0,68,0.00,,,0.00,,2013-02-01 11:41:00,
2013-02-01 05:53:00,29.0,19.0,30.40,NNE,30,3.0,6.0,67,0.00,,,0.00,,2013-02-01 11:53:00,
2013-02-01 06:02:00,29.0,19.0,30.40,NE,38,2.0,9.0,67,0.00,,,0.00,,2013-02-01 12:02:00,
2013-02-01 06:12:00,29.0,19.0,30.40,NE,38,2.0,9.0,67,0.00,,,0.00,,2013-02-01 12:12:00,
2013-02-01 06:22:00,29.0,19.0,30.41,NW,318,4.0,8.0,66,0.00,,,0.00,,2013-02-01 12:22:00,
2013-02-01 06:32:00,29.0,20.0,30.42,NNW,337,3.0,7.0,70,0.00,,,0.00,,2013-02-01 12:32:00,
2013-02-01 06:42:00,29.0,20.0,30.42,NNW,337,3.0,7.0,70,0.00,,,0.00,,2013-02-01 12:42:00,
2013-02-01 06:52:00,29.0,20.0,30.42,NNW,333,3.0,7.0,70,0.00,,,0.00,,2013-02-01 12:52:00,
2013-02-01 07:02:00,28.0,20.0,30.41,NE,34,5.0,8.0,71,0.00,,,0.00,,2013-02-01 13:02:00,
2013-02-01 07:11:00,28.0,20.0,30.41,NE,34,5.0,8.0,71,0.00,,,0.00,,2013-02-01 13:11:00,
2013-02-01 07:22:00,28.0,19.0,30.42,NW,311,4.0,9.0,68,0.00,,,0.00,,2013-02-01 13:22:00,
2013-02-01 07:32:00,28.0,19.0,30.42,NE,45,4.0,7.0,68,0.00,,,0.00,,2013-02-01 13:32:00,
2013-02-01 07:42:00,28.0,19.0,30.42,NE,45,4.0,7.0,68,0.00,,,0.00,,2013-02-01 13:42:00,
2013-02-01 07:52:00,28.0,19.0,30.42,NNE,15,4.0,6.0,68,0.00,,,0.00,,2013-02-01 13:52:00,
2013-02-01 08:03:00,28.0,19.0,30.42,NE,36,4.0,8.0,68,0.00,,,0.00,,2013-02-01 14:03:00,
2013-02-01 08:11:00,29.0,19.0,30.42,North,11,2.0,8.0,66,0.00,,,0.00,,2013-02-01 14:11:00,
2013-02-01 08:21:00,29.0,19.0,30.42,North,11,2.0,8.0,66,0.00,,,0.00,,2013-02-01 14:21:00,
2013-02-01 08:32:00,29.0,18.0,30.43,ENE,65,3.0,8.0,64,0.00,,,0.00,,2013-02-01 14:32:00,
2013-02-01 08:42:00,29.0,18.0,30.43,ENE,65,3.0,8.0,64,0.00,,,0.00,,2013-02-01 14:42:00,
2013-02-01 08:52:00,30.0,19.0,30.43,NNE,27,5.0,7.0,63,0.00,,,0.00,,2013-02-01 14:52:00,
2013-02-01 09:02:00,31.0,19.0,30.43,NNE,16,5.0,7.0,60,0.00,,,0.00,,2013-02-01 15:02:00,
2013-02-01 09:12:00,32.0,19.0,30.42,NNE,33,6.0,8.0,59,0.00,,,0.00,,2013-02-01 15:12:00,
2013-02-01 09:21:00,32.0,19.0,30.42,NNE,33,6.0,8.0,59,0.00,,,0.00,,2013-02-01 15:21:00,
2013-02-01 09:33:00,33.0,20.0,30.42,NNE,33,6.0,10.0,58,0.00,,,0.00,,2013-02-01 15:33:00,
2013-02-01 09:42:00,33.0,20.0,30.42,NNE,33,6.0,10.0,58,0.00,,,0.00,,2013-02-01 15:42:00,
2013-02-01 09:52:00,34.0,20.0,30.43,East,79,4.0,8.0,57,0.00,,,0.00,,2013-02-01 15:52:00,
2013-02-01 10:03:00,35.0,20.0,30.43,ENE,60,5.0,8.0,55,0.00,,,0.00,,2013-02-01 16:03:00,
2013-02-01 10:11:00,37.0,21.0,30.42,ENE,67,6.0,8.0,53,0.00,,,0.00,,2013-02-01 16:11:00,
2013-02-01 10:22:00,37.0,21.0,30.42,ENE,67,6.0,8.0,53,0.00,,,0.00,,2013-02-01 16:22:00,
2013-02-01 10:33:00,39.0,23.0,30.42,East,91,4.0,7.0,52,0.00,,,0.00,,2013-02-01 16:33:00,
2013-02-01 10:42:00,40.0,23.0,30.42,East,89,4.0,8.0,51,0.00,,,0.00,,2013-02-01 16:42:00,
2013-02-01 10:52:00,40.0,23.0,30.42,East,89,4.0,8.0,51,0.00,,,0.00,,2013-02-01 16:52:00,
2013-02-01 11:02:00,41.0,25.0,30.42,ENE,60,7.0,11.0,52,0.00,,,0.00,,2013-02-01 17:02:00,
2013-02-01 11:11:00,42.0,25.0,30.41,ENE,72,6.0,10.0,51,0.00,,,0.00,,2013-02-01 17:11:00,
2013-02-01 11:22:00,42.0,25.0,30.41,ENE,72,6.0,10.0,51,0.00,,,0.00,,2013-02-01 17:22:00,
2013-02-01 11:32:00,43.0,26.0,30.40,East,91,2.0,10.0,51,0.00,,,0.00,,2013-02-01 17:32:00,
2013-02-01 11:42:00,43.0,26.0,30.40,East,91,2.0,10.0,51,0.00,,,0.00,,2013-02-01 17:42:00,
2013-02-01 11:52:00,44.0,26.0,30.39,ENE,70,5.0,10.0,49,0.00,,,0.00,,2013-02-01 17:52:00,
2013-02-01 12:02:00,46.0,27.0,30.38,ENE,76,5.0,12.0,48,0.00,,,0.00,,2013-02-01 18:02:00,
2013-02-01 12:12:00,46.0,27.0,30.38,ENE,76,5.0,12.0,48,0.00,,,0.00,,2013-02-01 18:12:00,
2013-02-01 12:22:00,46.0,27.0,30.36,East,100,6.0,10.0,47,0.00,,,0.00,,2013-02-01 18:22:00,
2013-02-01 12:32:00,48.0,28.0,30.35,ESE,115,6.0,11.0,45,0.00,,,0.00,,2013-02-01 18:32:00,
2013-02-01 12:42:00,48.0,28.0,30.35,ESE,115,6.0,11.0,45,0.00,,,0.00,,2013-02-01 18:42:00,
2013-02-01 12:52:00,49.0,28.0,30.35,East,81,8.0,12.0,44,0.00,,,0.00,,2013-02-01 18:52:00,
2013-02-01 13:02:00,50.0,29.0,30.33,ESE,114,6.0,12.0,45,0.00,,,0.00,,2013-02-01 19:02:00,
2013-02-01 13:11:00,50.0,29.0,30.33,ESE,114,6.0,12.0,45,0.00,,,0.00,,2013-02-01 19:11:00,
2013-02-01 13:21:00,50.0,29.0,30.33,NNE,30,4.0,12.0,44,0.00,,,0.00,,2013-02-01 19:21:00,
2013-02-01 13:32:00,51.0,29.0,30.32,SE,129,4.0,13.0,43,0.00,,,0.00,,2013-02-01 19:32:00,
2013-02-01 13:41:00,51.0,29.0,30.32,SE,129,4.0,13.0,43,0.00,,,0.00,,2013-02-01 19:41:00,
2013-02-01 13:51:00,52.0,31.0,30.31,East,79,7.0,12.0,44,0.00,,,0.00,,2013-02-01 19:51:00,
2013-02-01 14:02:00,53.0,31.0,30.30,SE,131,3.0,11.0,42,0.00,,,0.00,,2013-02-01 20:02:00,
2013-02-01 14:11:00,54.0,31.0,30.29,East,80,7.0,9.0,42,0.00,,,0.00,,2013-02-01 20:11:00,
2013-02-01 14:21:00,54.0,31.0,30.29,East,80,7.0,9.0,42,0.00,,,0.00,,2013-02-01 20:21:00,
2013-02-01 14:31:00,55.0,32.0,30.28,SW,217,2.0,10.0,41,0.00,,,0.00,,2013-02-01 20:31:00,
2013-02-01 14:41:00,55.0,31.0,30.27,East,93,7.0,10.0,40,0.00,,,0.00,,2013-02-01 20:41:00,
2013-02-01 14:52:00,55.0,31.0,30.27,East,93,7.0,10.0,40,0.00,,,0.00,,2013-02-01 20:52:00,
2013-02-01 15:02:00,56.0,32.0,30.26,East,91,4.0,9.0,40,0.00,,,0.00,,2013-02-01 21:02:00,
2013-02-01 15:11:00,56.0,32.0,30.26,East,91,4.0,9.0,40,0.00,,,0.00,,2013-02-01 21:11:00,
2013-02-01 15:21:00,56.0,32.0,30.25,ESE,118,6.0,13.0,40,0.00,,,0.00,,2013-02-01 21:21:00,
2013-02-01 15:32:00,57.0,32.0,30.25,SE,137,5.0,12.0,39,0.00,,,0.00,,2013-02-01 21:32:00,
2013-02-01 15:41:00,57.0,32.0,30.25,SE,137,5.0,12.0,39,0.00,,,0.00,,2013-02-01 21:41:00,
2013-02-01 15:52:00,57.0,33.0,30.24,ESE,110,8.0,14.0,40,0.00,,,0.00,,2013-02-01 21:52:00,
2013-02-01 16:02:00,57.0,33.0,30.24,ESE,110,8.0,14.0,40,0.00,,,0.00,,2013-02-01 22:02:00,
2013-02-01 16:11:00,57.0,33.0,30.24,ESE,110,8.0,14.0,40,0.00,,,0.00,,2013-02-01 22:11:00,
2013-02-01 16:21:00,59.0,33.0,30.22,SE,131,5.0,10.0,38,0.00,,,0.00,,2013-02-01 22:21:00,
2013-02-01 16:32:00,59.0,34.0,30.22,SE,142,4.0,11.0,39,0.00,,,0.00,,2013-02-01 22:32:00,
2013-02-01 16:42:00,59.0,34.0,30.22,SE,142,4.0,11.0,39,0.00,,,0.00,,2013-02-01 22:42:00,
2013-02-01 16:52:00,60.0,34.0,30.21,SE,131,5.0,10.0,37,0.00,,,0.00,,2013-02-01 22:52:00,
2013-02-01 17:01:00,60.0,34.0,30.20,East,85,6.0,10.0,37,0.00,,,0.00,,2013-02-01 23:01:00,
2013-02-01 17:11:00,60.0,34.0,30.20,East,85,6.0,10.0,37,0.00,,,0.00,,2013-02-01 23:11:00,
2013-02-01 17:21:00,59.0,33.0,30.19,SE,138,5.0,12.0,38,0.00,,,0.00,,2013-02-01 23:21:00,
2013-02-01 17:31:00,60.0,34.0,30.19,SE,136,5.0,10.0,38,0.00,,,0.00,,2013-02-01 23:31:00,
2013-02-01 17:41:00,60.0,34.0,30.19,SE,136,5.0,10.0,38,0.00,,,0.00,,2013-02-01 23:41:00,
2013-02-01 17:52:00,59.0,34.0,30.18,SE,139,7.0,13.0,39,0.00,,,0.00,,2013-02-01 23:52:00,
2013-02-01 18:02:00,59.0,35.0,30.18,SE,136,4.0,9.0,40,0.00,,,0.00,,2013-02-02 00:02:00,
2013-02-01 18:11:00,59.0,35.0,30.18,SE,136,4.0,9.0,40,0.00,,,0.00,,2013-02-02 00:11:00,
2013-02-01 18:21:00,58.0,35.0,30.18,SSE,152,4.0,12.0,42,0.00,,,0.00,,2013-02-02 00:21:00,
2013-02-01 18:32:00,57.0,35.0,30.18,ESE,110,2.0,8.0,44,0.00,,,0.00,,2013-02-02 00:32:00,
2013-02-01 18:42:00,57.0,35.0,30.18,ESE,110,2.0,8.0,44,0.00,,,0.00,,2013-02-02 00:42:00,
2013-02-01 18:52:00,56.0,36.0,30.18,ESE,114,2.0,6.0,46,0.00,,,0.00,,2013-02-02 00:52:00,
2013-02-01 19:02:00,55.0,35.0,30.18,SE,134,2.0,4.0,47,0.00,,,0.00,,2013-02-02 01:02:00,
2013-02-01 19:11:00,55.0,35.0,30.18,SE,134,2.0,4.0,47,0.00,,,0.00,,2013-02-02 01:11:00,
2013-02-01 19:21:00,55.0,36.0,30.18,SE,136,1.0,4.0,49,0.00,,,0.00,,2013-02-02 01:21:00,
2013-02-01 19:32:00,54.0,36.0,30.18,East,100,0.0,0.0,50,0.00,,,0.00,,2013-02-02 01:32:00,
2013-02-01 19:41:00,54.0,36.0,30.18,East,100,0.0,0.0,50,0.00,,,0.00,,2013-02-02 01:41:00,
2013-02-01 19:52:00,54.0,37.0,30.18,East,94,0.0,0.0,52,0.00,,,0.00,,2013-02-02 01:52:00,
2013-02-01 20:01:00,53.0,36.0,30.18,East,89,0.0,0.0,52,0.00,,,0.00,,2013-02-02 02:01:00,
2013-02-01 20:11:00,53.0,36.0,30.18,East,89,0.0,0.0,52,0.00,,,0.00,,2013-02-02 02:11:00,
2013-02-01 20:21:00,53.0,37.0,30.18,East,96,1.0,2.0,54,0.00,,,0.00,,2013-02-02 02:21:00,
2013-02-01 20:31:00,52.0,36.0,30.17,East,85,0.0,3.0,55,0.00,,,0.00,,2013-02-02 02:31:00,
2013-02-01 20:42:00,52.0,36.0,30.17,East,85,0.0,3.0,55,0.00,,,0.00,,2013-02-02 02:42:00,
2013-02-01 20:52:00,52.0,37.0,30.17,ESE,108,0.0,0.0,56,0.00,,,0.00,,2013-02-02 02:52:00,
2013-02-01 21:02:00,52.0,37.0,30.17,East,93,0.0,0.0,56,0.00,,,0.00,,2013-02-02 03:02:00,
2013-02-01 21:11:00,51.0,36.0,30.18,East,99,0.0,0.0,57,0.00,,,0.00,,2013-02-02 03:11:00,
2013-02-01 21:21:00,51.0,36.0,30.18,East,99,0.0,0.0,57,0.00,,,0.00,,2013-02-02 03:21:00,
2013-02-01 21:32:00,51.0,36.0,30.18,East,99,0.0,0.0,57,0.00,,,0.00,,2013-02-02 03:32:00,
2013-02-01 21:42:00,50.0,36.0,30.18,ESE,105,0.0,0.0,59,0.00,,,0.00,,2013-02-02 03:42:00,
2013-02-01 21:52:00,50.0,36.0,30.18,ESE,105,0.0,0.0,59,0.00,,,0.00,,2013-02-02 03:52:00,
2013-02-01 22:01:00,50.0,36.0,30.18,ESE,105,1.0,4.0,59,0.00,,,0.00,,2013-02-02 04:01:00,
2013-02-01 22:11:00,50.0,36.0,30.18,ESE,105,1.0,4.0,59,0.00,,,0.00,,2013-02-02 04:11:00,
2013-02-01 22:21:00,50.0,36.0,30.18,East,86,1.0,3.0,59,0.00,,,0.00,,2013-02-02 04:21:00,
2013-02-01 22:32:00,50.0,37.0,30.18,East,91,1.0,2.0,60,0.00,,,0.00,,2013-02-02 04:32:00,
2013-02-01 22:41:00,50.0,37.0,30.18,East,91,1.0,2.0,60,0.00,,,0.00,,2013-02-02 04:41:00,
2013-02-01 22:52:00,50.0,37.0,30.18,ESE,112,1.0,3.0,61,0.00,,,0.00,,2013-02-02 04:52:00,
2013-02-01 23:03:00,50.0,38.0,30.18,East,94,0.0,2.0,62,0.00,,,0.00,,2013-02-02 05:03:00,
2013-02-01 23:12:00,50.0,38.0,30.18,East,94,0.0,2.0,62,0.00,,,0.00,,2013-02-02 05:12:00,
2013-02-01 23:22:00,49.0,37.0,30.17,East,101,0.0,0.0,63,0.00,,,0.00,,2013-02-02 05:22:00,
2013-02-01 23:33:00,49.0,37.0,30.17,East,98,0.0,0.0,63,0.00,,,0.00,,2013-02-02 05:33:00,
2013-02-01 23:41:00,49.0,37.0,30.17,East,98,0.0,0.0,63,0.00,,,0.00,,2013-02-02 05:41:00,
2013-02-01 23:52:00,49.0,37.0,30.17,East,97,2.0,3.0,64,0.00,,,0.00,,2013-02-02 05:52:00,